»·PEaware :: DIHNF KEUG-KPDX

DIHNF :: KEUG-KPDX

FLIGHT INFORMATION

Flight Status: Arrived
Operator: Unknown
More flights by this operator :: More flights under this callsign
Pilot: Klaus A. (15485)
Aircraft: Unknown
(DA62)
More flights by this aircraft type
Origin: KEUG Mahlon Sweet
United States
Destination: KPDX Portland Intl
United States
More flights between these airports :: More routes between these airports
Route: +EUGEN9 EUG V23 CANBY
File this flight plan on PilotEdge
Remarks: / G Custom weather
Altitude:
(Current/Filed)
10,000ft
Speed:
(Current/Filed)
150kts
Departed: 30-Jul-18 09:20 AM
Arrived: 30-Jul-18 10:18 AM
Distance/Time
Traveled:
92nm/0:57
Distance/Time
To Go:
Arrived

Flight Plot

Page will automatically refresh every two minutes.

Flight plan parsing failed; only flown route is shown


Map Options




Map Legend


Flown Route
Filed Route
Departure Airport
Arrival Airport
Navaid (VOR, NDB)
Fix

Horizontal Profiles

Position Reports

Time Latitude Longitude Heading Altitude Ground
Speed
30-Jul-18 08:49 44.117932 -123.215183 42 378ft 0kts
30-Jul-18 08:50 44.117932 -123.215183 42 378ft 0kts
30-Jul-18 08:51 44.117932 -123.215183 42 378ft 0kts
30-Jul-18 08:52 44.117932 -123.215183 42 378ft 0kts
30-Jul-18 08:53 44.117932 -123.215183 42 378ft 0kts
30-Jul-18 08:54 44.117932 -123.215183 42 378ft 0kts
30-Jul-18 08:55 44.117932 -123.215183 42 378ft 0kts
30-Jul-18 08:56 44.117932 -123.215183 42 378ft 0kts
30-Jul-18 08:57 44.117932 -123.215183 42 378ft 0kts
30-Jul-18 08:58 44.117932 -123.215183 42 378ft 0kts
30-Jul-18 08:59 44.117932 -123.215183 42 378ft 0kts
30-Jul-18 09:00 44.117932 -123.215183 42 378ft 0kts
30-Jul-18 09:01 44.117932 -123.215183 42 378ft 0kts
30-Jul-18 09:02 44.117932 -123.215183 42 378ft 0kts
30-Jul-18 09:03 44.117932 -123.215183 42 378ft 0kts
30-Jul-18 09:04 44.117932 -123.215183 42 378ft 0kts
30-Jul-18 09:05 44.117932 -123.215183 42 378ft 0kts
30-Jul-18 09:06 44.117932 -123.215183 42 378ft 0kts
30-Jul-18 09:07 44.117932 -123.215183 42 378ft 0kts
30-Jul-18 09:08 44.118101 -123.215339 291 378ft 3kts
30-Jul-18 09:09 44.117757 -123.216961 357 378ft 10kts
30-Jul-18 09:10 44.122799 -123.217068 358 378ft 22kts
30-Jul-18 09:11 44.129536 -123.217165 359 378ft 25kts
30-Jul-18 09:12 44.134837 -123.216940 355 378ft 0kts
30-Jul-18 09:13 44.134840 -123.216940 355 378ft 0kts
30-Jul-18 09:14 44.134840 -123.216940 355 378ft 0kts
30-Jul-18 09:15 44.134840 -123.216940 355 378ft 0kts
30-Jul-18 09:16 44.134840 -123.216940 355 378ft 0kts
30-Jul-18 09:17 44.135205 -123.217192 316 378ft 0kts
30-Jul-18 09:18 44.135205 -123.217192 316 378ft 0kts
30-Jul-18 09:19 44.135305 -123.217968 270 378ft 0kts
30-Jul-18 09:20 44.134153 -123.219120 179 378ft 31kts
30-Jul-18 09:21 44.108048 -123.219026 184 1099ft 108kts
30-Jul-18 09:22 44.077909 -123.219345 178 2306ft 112kts
30-Jul-18 09:23 44.048806 -123.217452 176 3425ft 109kts
30-Jul-18 09:24 44.020377 -123.207924 101 4517ft 107kts
30-Jul-18 09:25 44.014933 -123.170676 96 5548ft 108kts
30-Jul-18 09:26 44.020507 -123.139852 4 6554ft 96kts
30-Jul-18 09:27 44.046216 -123.137417 1 7633ft 96kts
30-Jul-18 09:28 44.072641 -123.133246 5 8704ft 98kts
30-Jul-18 09:29 44.105472 -123.128597 4 9013ft 148kts
30-Jul-18 09:30 44.144680 -123.123262 4 9458ft 149kts
30-Jul-18 09:31 44.182876 -123.118087 4 9922ft 149kts
30-Jul-18 09:32 44.219518 -123.113129 4 10002ft 159kts
30-Jul-18 09:33 44.258361 -123.107984 4 10001ft 163kts
30-Jul-18 09:34 44.296320 -123.102904 4 10001ft 164kts
30-Jul-18 09:35 44.319106 -123.099842 4 10000ft 164kts
30-Jul-18 09:36 44.357221 -123.094707 4 10000ft 164kts
30-Jul-18 09:37 44.395281 -123.091657 4 10001ft 164kts
30-Jul-18 09:38 44.432358 -123.086699 4 10000ft 164kts
30-Jul-18 09:39 44.469890 -123.081652 4 10000ft 164kts
30-Jul-18 09:40 44.506624 -123.074493 13 10000ft 165kts
30-Jul-18 09:41 44.543468 -123.060186 13 10000ft 165kts
30-Jul-18 09:42 44.580917 -123.047265 11 9998ft 165kts
30-Jul-18 09:43 44.619754 -123.033279 13 10000ft 165kts
30-Jul-18 09:44 44.659964 -123.017963 13 9999ft 165kts
30-Jul-18 09:45 44.699861 -123.002648 13 9998ft 164kts
30-Jul-18 09:46 44.736655 -122.988493 13 9998ft 164kts
30-Jul-18 09:47 44.771986 -122.974885 13 9998ft 164kts
30-Jul-18 09:48 44.807174 -122.961311 13 10000ft 164kts
30-Jul-18 09:49 44.841710 -122.947967 13 10000ft 165kts
30-Jul-18 09:50 44.877337 -122.934184 13 9999ft 165kts
30-Jul-18 09:51 44.910537 -122.921314 13 9997ft 165kts
30-Jul-18 09:52 44.942878 -122.908778 13 9998ft 165kts
30-Jul-18 09:53 44.975019 -122.896304 13 9998ft 165kts
30-Jul-18 09:54 45.007436 -122.883706 13 9999ft 164kts
30-Jul-18 09:55 45.044590 -122.869248 13 9998ft 165kts
30-Jul-18 09:56 45.081293 -122.854916 13 9996ft 155kts
30-Jul-18 09:57 45.118685 -122.840344 13 10001ft 162kts
30-Jul-18 09:58 45.156831 -122.825324 13 9893ft 169kts
30-Jul-18 09:59 45.196597 -122.809735 13 9281ft 174kts
30-Jul-18 10:00 45.235010 -122.794678 13 8614ft 171kts
30-Jul-18 10:01 45.269449 -122.781162 13 8011ft 169kts
30-Jul-18 10:02 45.297898 -122.757720 44 7433ft 171kts
30-Jul-18 10:03 45.319774 -122.723039 44 6883ft 170kts
30-Jul-18 10:04 45.345059 -122.682740 44 6242ft 169kts
30-Jul-18 10:05 45.368890 -122.644798 44 5632ft 168kts
30-Jul-18 10:06 45.397074 -122.599710 44 5010ft 161kts
30-Jul-18 10:07 45.420035 -122.556706 54 4998ft 146kts
30-Jul-18 10:08 45.437421 -122.515371 55 5000ft 146kts
30-Jul-18 10:09 45.450161 -122.478040 64 4900ft 151kts
30-Jul-18 10:10 45.463944 -122.426421 63 4357ft 153kts
30-Jul-18 10:11 45.478784 -122.370143 64 3674ft 149kts
30-Jul-18 10:12 45.507709 -122.370377 297 3019ft 120kts
30-Jul-18 10:13 45.522744 -122.411729 301 2493ft 118kts
30-Jul-18 10:14 45.536544 -122.446990 303 1975ft 95kts
30-Jul-18 10:15 45.549217 -122.479249 304 1446ft 85kts
30-Jul-18 10:16 45.560500 -122.507530 302 1022ft 85kts
30-Jul-18 10:17 45.572049 -122.537438 304 577ft 87kts
30-Jul-18 10:18 45.583475 -122.566622 304 118ft 77kts
30-Jul-18 10:19 45.589101 -122.581598 244 27ft 15kts
30-Jul-18 10:20 45.587745 -122.582926 218 27ft 5kts
30-Jul-18 10:21 45.587478 -122.583364 211 27ft 0kts
30-Jul-18 10:22 45.587478 -122.583364 211 27ft 0kts
30-Jul-18 10:23 45.587478 -122.583364 211 27ft 0kts

Navigation Log

Ident Type
Flight plan parsing failed, navigation log unavailable